x

West Bermuda - 240 Nm West Of Bermuda (41048) Wave Buoy

10:50pm - Fri 22nd May 2015 All times are UTC.

  • Sig Wave height 4.6ft
  • Swell Direction
  • Peak Period 7s
  • Average Period 5s
  • Wind
    11mph, 13mph gusts
  • Sea Temp 74°f
  • Air Temp 75°f
  • Sea Pressure 1020.2mb

More Historic Weather Station data

Upgrade to MSW Pro to gain access to the past 30 days of data for over 8000 Wavebouys and Weather Stations around the globe.

Join Pro

Comparision Forecast

View Surf forecast
   
Fri 05/22 10:50pm 4.5ft 7s 5s 11 13 mph 1020.2mb 74f 75f
9:50pm 4.5ft 7s 5s 11 13 mph 1019.9mb 74f 75f
8:50pm 4.5ft 6s 5s 13 16 mph 1019.7mb 74f 75f
7:50pm 4.5ft 6s 5s 16 18 mph 1019.3mb 74f 76f
6:50pm 4.5ft 6s 5s 16 18 mph 1019.2mb 74f 76f
5:50pm 4.5ft 5s 5s 16 18 mph 1019.1mb 74f 76f
4:50pm 4.5ft 6s 5s 18 20 mph 1018.9mb 74f 75f
3:50pm 4.5ft 5s 5s 20 22 mph 1018.7mb 74f 75f
2:50pm 4.5ft 5s 4s 22 25 mph 1018.5mb 74f 75f
1:50pm 4ft 6s 4s 20 25 mph 1018mb 74f 75f
12:50pm 4.5ft 5s 4s 20 22 mph 1017.8mb 74f 75f
11:50am 4.5ft 4s 4s 20 22 mph 1017.3mb 74f 75f
10:50am 4ft 5s 4s 20 25 mph 1017mb 74f 75f
9:50am 4.5ft 4s 4s 20 25 mph 1016.4mb 74f 74f
8:50am 4ft 5s 4s 20 25 mph 1015.8mb 74f 74f
7:50am 4ft 5s 4s 22 25 mph 1015.8mb 74f 74f
6:50am 3.5ft 6s 4s 20 25 mph 1015.8mb 74f 74f
5:50am 3.5ft 4s 4s 20 22 mph 1015.9mb 74f 74f
4:50am 3.5ft 6s 4s 20 25 mph 1016mb 74f 74f
3:50am 3.5ft 5s 4s 18 20 mph 1016.2mb 74f 74f
2:50am 3.5ft 5s 4s 18 20 mph 1016.5mb 74f 74f
1:50am 3.5ft 7s 4s 18 20 mph 1016.3mb 74f 75f
12:50am 3ft 5s 4s 18 20 mph 1015.8mb 74f 74f
Thu 05/21 11:50pm 3.5ft 7s 5s 16 18 mph 1015.4mb 74f 74f
10:50pm 3.5ft 5s 4s 13 16 mph 1015.4mb 74f 75f
9:50pm 3.5ft 7s 5s 16 18 mph 1015.3mb 74f 75f
8:50pm 3.5ft 6s 5s 13 16 mph 1015.7mb 74f 75f
7:50pm 4ft 7s 5s 11 16 mph 1015.7mb 74f 75f
6:50pm 3.5ft 6s 5s 13 18 mph 1015.7mb 74f 75f
5:50pm 4.5ft 6s 5s 16 18 mph 1016mb 74f 75f
4:50pm 4ft 6s 5s 16 18 mph 1015.9mb 74f 75f
3:50pm 4ft 7s 5s 18 20 mph 1016mb 74f 74f
2:50pm 3.5ft 7s 5s 18 22 mph 1015.6mb 74f 74f
1:50pm 3.5ft 6s 4s 16 20 mph 1015.3mb 74f 74f
12:50pm 3.5ft 6s 5s 16 18 mph 1015.5mb 74f 74f
11:50am 3.5ft 7s 5s 16 20 mph 1014.9mb 74f 74f
10:50am 3ft 6s 5s 16 20 mph 1014.8mb 73f 74f
9:50am 3.5ft 6s 5s 13 16 mph 1014.7mb 73f 74f
8:50am 3ft 9s 5s 13 16 mph 1014.1mb 73f 73f
6:50am 3ft 6s 5s 13 16 mph 1014.4mb 73f 73f
5:50am 3.5ft 6s 5s 13 16 mph 1014.8mb 73f 73f
4:50am 3ft 6s 5s 11 13 mph 1015mb 74f 73f
3:50am 3.5ft 6s 6s 11 13 mph 1015.5mb 74f 73f
2:50am 3.5ft 6s 5s 9 11 mph 1015.8mb 74f 73f
1:50am 3.5ft 9s 5s 11 13 mph 1016.2mb 74f 73f
12:50am 3.5ft 7s 5s 11 13 mph 1015.6mb 74f 74f
Wed 05/20 11:50pm 3.5ft 9s 5s 11 13 mph 1015.3mb 74f 74f
10:50pm 3.5ft 8s 5s 11 13 mph 1015.1mb 74f 74f
9:50pm 3.5ft 9s 5s 13 16 mph 1014.8mb 74f 74f
8:50pm 3.5ft 9s 5s 13 16 mph 1014.7mb 74f 74f
7:50pm 3.5ft 9s 5s 16 18 mph 1014.9mb 74f 74f
6:50pm 3.5ft 7s 5s 13 18 mph 1015.3mb 74f 74f
5:50pm 3.5ft 9s 5s 16 18 mph 1015.5mb 74f 73f
4:50pm 3.5ft 8s 5s 13 16 mph 1015.8mb 74f 73f
3:50pm 3.5ft 8s 5s 13
mph
1015.8mb 74f 73f
2:50pm 3.5ft 8s 5s 11 13 mph 1016.2mb 74f 73f
1:50pm 3.5ft 8s 6s 11 13 mph 1016.2mb 73f 73f
12:50pm 3.5ft 9s 5s 13 16 mph 1016.1mb 73f 73f
11:50am 3.5ft 8s 5s 13 16 mph 1015.7mb 73f 73f
10:50am 3.5ft 8s 5s 13 16 mph 1015.5mb 73f 73f
9:50am 3.5ft 8s 5s 13 16 mph 1015.3mb 73f 72f
8:50am 3.5ft 8s 5s 16 18 mph 1015.3mb 73f 72f
7:50am 3.5ft 7s 6s 13 16 mph 1015mb 73f 72f
6:50am 4ft 8s 6s 11 13 mph 1015.1mb 74f 72f
5:50am 3.5ft 9s 6s 11 13 mph 1015.7mb 74f 72f
4:50am 3.5ft 8s 6s 11 13 mph 1016mb 74f 73f
3:50am 4ft 9s 6s 11 13 mph 1016.4mb 74f 73f
2:50am 4ft 8s 5s 11 13 mph 1016.4mb 74f 73f
1:50am 4ft 9s 6s 11 13 mph 1016.4mb 74f 73f
12:50am 4ft 8s 6s 13
mph
1016.2mb 74f 73f
Tue 05/19 11:50pm 4ft 8s 5s 13 16 mph 1016mb 74f 71f
10:50pm 3.5ft 8s 6s 13 16 mph 1015.7mb 75f 73f
9:50pm 3.5ft 8s 6s 7 9 mph 1015.6mb 75f 74f
8:50pm 3.5ft 6s 6s 7 9 mph 1015.8mb 76f 74f
7:50pm 3.5ft 10s 6s 9
mph
1015.8mb 77f 74f
6:50pm 3.5ft 6s 6s 4 7 mph 1016.4mb 77f 74f
5:50pm 3.5ft 9s 6s 2 4 mph 1016.8mb 78f 74f
4:50pm 3.5ft 9s 6s 2
mph
1017.2mb 76f 73f
3:50pm 3.5ft 10s 6s 4
mph
1017.3mb 75f 73f
2:50pm 3.5ft 10s 6s 2 4 mph 1017.4mb 74f 73f
1:50pm 4ft 6s 5s 4 7 mph 1017.2mb 74f 73f
12:50pm 4.5ft 6s 5s 7 9 mph 1016.9mb 73f 72f
11:50am 4.5ft 6s 5s 11 13 mph 1016.8mb 73f 72f
10:50am 5ft 6s 5s 11 16 mph 1016.4mb 73f 72f
9:50am 5ft 7s 5s 18 22 mph 1016.1mb 73f 72f
8:50am 5ft 7s 5s 18 22 mph 1015.8mb 73f 73f
7:50am 5ft 6s 5s 16 20 mph 1016.4mb 73f 72f
6:50am 5ft 7s 5s 18 20 mph 1016.7mb 73f 72f
5:50am 5ft 6s 5s 18 22 mph 1017.3mb 73f 73f
4:50am 5ft 6s 5s 18 22 mph 1017.7mb 73f 72f
3:50am 5ft 6s 5s 18 22 mph 1018mb 73f 72f
2:50am 5ft 6s 5s 20 22 mph 1018.6mb 73f 72f
1:50am 5ft 6s 5s 20 22 mph 1018.9mb 73f 72f
12:50am 5ft 6s 5s 18 20 mph 1018.6mb 74f 72f